Time;durP1;ratioP1;P1;durP2;ratioP2;P2;SDS_P1;SDS_P2;PMS_P1;PMS_P2;Temp;Humidity;BMP_temperature;BMP_pressure;BME280_temperature;BME280_humidity;BME280_pressure;Samples;Min_cycle;Max_cycle;Signal;HPM_P1;HPM_P2
2022/12/16 00:00:18;;;;;;;2.58;2.38;;;20.20;47.20;;;;;;5061239;28;43425;-59
2022/12/16 00:02:45;;;;;;;2.42;2.20;;;20.20;47.20;;;;;;5061487;28;43508;-59
2022/12/16 00:05:13;;;;;;;2.97;2.72;;;20.10;47.10;;;;;;5060438;28;44986;-59
2022/12/16 00:07:40;;;;;;;2.53;2.30;;;20.10;47.20;;;;;;5060909;28;43702;-59
2022/12/16 00:10:09;;;;;;;2.47;2.28;;;20.10;47.10;;;;;;5061589;28;43387;-60
2022/12/16 00:12:36;;;;;;;2.30;2.10;;;20.10;47.20;;;;;;5060708;28;43423;-59
2022/12/16 00:15:04;;;;;;;3.55;2.28;;;20.10;47.30;;;;;;5060201;28;44635;-59
2022/12/16 00:17:31;;;;;;;2.60;2.40;;;20.10;47.30;;;;;;5061060;28;44077;-59
2022/12/16 00:19:59;;;;;;;2.50;2.30;;;20.00;47.20;;;;;;5061042;28;43442;-59
2022/12/16 00:22:26;;;;;;;2.30;2.10;;;20.10;47.30;;;;;;5060563;28;43397;-59
2022/12/16 00:24:54;;;;;;;3.05;2.10;;;20.00;47.30;;;;;;5060284;28;44671;-59
2022/12/16 00:27:21;;;;;;;2.50;2.15;;;20.00;47.30;;;;;;5060662;28;43702;-59
2022/12/16 00:29:49;;;;;;;2.67;2.08;;;20.00;47.30;;;;;;5049299;28;43497;-59
2022/12/16 00:32:16;;;;;;;2.08;1.88;;;20.00;47.30;;;;;;5054590;28;43411;-59
2022/12/16 00:34:44;;;;;;;2.13;2.00;;;20.00;47.40;;;;;;5059055;28;44056;-59
2022/12/16 00:37:12;;;;;;;2.10;1.88;;;20.00;47.40;;;;;;5060302;28;43647;-59
2022/12/16 00:39:40;;;;;;;1.90;1.80;;;19.90;47.30;;;;;;5060534;28;43559;-59
2022/12/16 00:42:08;;;;;;;2.50;1.98;;;19.90;47.40;;;;;;5060294;28;43496;-59
2022/12/16 00:44:35;;;;;;;2.05;1.85;;;19.90;47.40;;;;;;5044677;28;43612;-60
2022/12/16 00:47:03;;;;;;;2.40;1.75;;;19.90;47.40;;;;;;5060933;28;43753;-59
2022/12/16 00:49:30;;;;;;;2.38;2.00;;;19.90;47.40;;;;;;5060367;28;43431;-59
2022/12/16 00:51:57;;;;;;;2.35;1.90;;;19.80;47.40;;;;;;5061135;28;43379;-60
2022/12/16 00:54:25;;;;;;;1.88;1.77;;;19.80;47.40;;;;;;5059884;28;43883;-59
2022/12/16 00:56:52;;;;;;;2.03;1.83;;;19.80;47.40;;;;;;5059984;28;43665;-59
2022/12/16 00:59:21;;;;;;;1.80;1.70;;;19.80;47.40;;;;;;5060396;28;43408;-59
2022/12/16 01:01:48;;;;;;;2.00;1.90;;;19.80;47.40;;;;;;5060604;28;43492;-59
2022/12/16 01:04:16;;;;;;;1.38;1.27;;;19.80;47.40;;;;;;5058825;28;44820;-59
2022/12/16 01:06:45;;;;;;;1.60;1.50;;;19.80;47.50;;;;;;5060284;28;43932;-59
2022/12/16 01:09:13;;;;;;;1.90;1.80;;;19.80;47.50;;;;;;5060480;28;43420;-59
2022/12/16 01:11:41;;;;;;;2.03;1.60;;;19.80;47.50;;;;;;5058531;28;43484;-59
2022/12/16 01:14:08;;;;;;;1.60;1.50;;;19.80;47.50;;;;;;5059944;28;44705;-59
2022/12/16 01:16:35;;;;;;;1.52;1.42;;;19.80;47.50;;;;;;5060119;28;43388;-59
2022/12/16 01:19:03;;;;;;;1.50;1.40;;;19.70;47.40;;;;;;5060055;28;44286;-59
2022/12/16 01:21:30;;;;;;;1.50;1.40;;;19.70;47.50;;;;;;5060411;28;43414;-59
2022/12/16 01:23:58;;;;;;;1.50;1.40;;;19.70;47.50;;;;;;5060129;28;43794;-60
2022/12/16 01:26:25;;;;;;;1.92;1.70;;;19.70;47.50;;;;;;5059859;28;43436;-59
2022/12/16 01:28:53;;;;;;;1.75;1.40;;;19.70;47.50;;;;;;5059664;28;43512;-59
2022/12/16 01:31:22;;;;;;;1.30;1.20;;;19.70;47.60;;;;;;5059976;28;43447;-59
2022/12/16 01:33:50;;;;;;;1.52;1.40;;;19.70;47.60;;;;;;5059828;28;44970;-59
2022/12/16 01:36:17;;;;;;;1.50;1.40;;;19.60;47.60;;;;;;5059924;28;43744;-59
2022/12/16 01:38:46;;;;;;;1.10;1.10;;;19.60;47.50;;;;;;5059673;28;43426;-59
2022/12/16 01:41:15;;;;;;;1.65;1.55;;;19.60;47.50;;;;;;5059496;28;43424;-59
2022/12/16 01:43:44;;;;;;;1.48;1.38;;;19.60;47.50;;;;;;5042985;28;44650;-59
2022/12/16 01:46:12;;;;;;;1.58;1.48;;;19.60;47.60;;;;;;5052368;28;43724;-59
2022/12/16 01:48:51;;;;;;;1.73;1.38;;;19.60;47.60;;;;;;5063666;28;43421;-59
2022/12/16 01:51:36;;;;;;;1.40;1.30;;;19.60;47.60;;;;;;5062888;28;43509;-59
2022/12/16 01:54:14;;;;;;;1.30;1.20;;;19.60;47.60;;;;;;5063210;28;44036;-59
2022/12/16 01:56:48;;;;;;;1.95;1.10;;;19.50;47.60;;;;;;5063147;28;43462;-59
2022/12/16 01:59:17;;;;;;;1.20;1.20;;;19.50;47.60;;;;;;5062442;28;43396;-59
2022/12/16 02:01:45;;;;;;;1.30;1.20;;;19.50;47.70;;;;;;5063127;28;43369;-59
2022/12/16 02:04:13;;;;;;;1.30;1.20;;;19.50;47.60;;;;;;5062724;28;44954;-59
2022/12/16 02:06:40;;;;;;;1.15;1.10;;;19.50;47.60;;;;;;5062629;28;43971;-59
2022/12/16 02:09:10;;;;;;;1.23;1.13;;;19.50;47.60;;;;;;5062766;28;43524;-59
2022/12/16 02:11:41;;;;;;;1.27;1.17;;;19.50;47.70;;;;;;5062973;28;43506;-59
2022/12/16 02:14:22;;;;;;;1.40;1.30;;;19.40;47.60;;;;;;5062534;28;44963;-59
2022/12/16 02:16:56;;;;;;;1.33;1.23;;;19.40;47.60;;;;;;5061972;28;43912;-59
2022/12/16 02:19:51;;;;;;;1.52;1.30;;;19.40;47.70;;;;;;5062914;28;43463;-59
2022/12/16 02:22:34;;;;;;;0.82;0.82;;;19.40;47.70;;;;;;5062871;28;43552;-59
2022/12/16 02:25:25;;;;;;;1.10;1.00;;;19.40;47.70;;;;;;5032743;28;45348;-59
2022/12/16 02:28:37;;;;;;;1.00;1.00;;;19.40;47.90;;;;;;5040261;28;43767;-59
2022/12/16 02:31:04;;;;;;;;;;;19.30;48.50;;;;;;5020523;28;43356;-59
2022/12/16 02:33:35;;;;;;;1.17;1.00;;;19.30;47.80;;;;;;5062499;28;43495;-59
2022/12/16 02:36:23;;;;;;;1.40;1.10;;;19.20;47.80;;;;;;5062999;28;44674;-59
2022/12/16 02:39:05;;;;;;;1.02;0.90;;;19.20;47.90;;;;;;5061906;28;43411;-59
2022/12/16 02:41:35;;;;;;;1.35;1.17;;;19.20;47.80;;;;;;5062746;28;43500;-59
2022/12/16 02:44:07;;;;;;;1.65;1.10;;;19.30;47.90;;;;;;5063135;28;43524;-59
2022/12/16 02:46:40;;;;;;;1.75;1.10;;;19.20;47.80;;;;;;5062401;28;44713;-59
2022/12/16 02:49:13;;;;;;;1.17;1.08;;;19.20;47.90;;;;;;5061703;28;43927;-59
2022/12/16 02:51:41;;;;;;;1.30;1.20;;;19.20;47.90;;;;;;5062684;28;43441;-59
2022/12/16 02:54:10;;;;;;;1.00;1.00;;;19.20;47.90;;;;;;5061227;28;43427;-59
2022/12/16 02:56:55;;;;;;;0.98;0.95;;;19.20;47.90;;;;;;5061377;28;44697;-59
2022/12/16 02:59:34;;;;;;;1.20;1.10;;;19.20;47.90;;;;;;5054301;28;43661;-59
2022/12/16 03:02:23;;;;;;;1.20;1.10;;;19.20;47.90;;;;;;5059797;28;43432;-59
2022/12/16 03:04:57;;;;;;;1.42;1.20;;;19.10;48.00;;;;;;5061780;28;43448;-59
2022/12/16 03:07:27;;;;;;;1.42;1.20;;;19.10;48.00;;;;;;5062169;28;44044;-59
2022/12/16 03:09:56;;;;;;;1.38;1.27;;;19.10;48.00;;;;;;5060920;28;43458;-59
2022/12/16 03:12:24;;;;;;;1.65;1.30;;;19.10;48.00;;;;;;5062224;28;43900;-59
2022/12/16 03:14:53;;;;;;;1.20;1.10;;;19.10;47.90;;;;;;5062166;28;43480;-59
2022/12/16 03:17:23;;;;;;;1.42;1.33;;;19.10;48.00;;;;;;5061748;28;44688;-59
2022/12/16 03:20:08;;;;;;;1.52;1.42;;;19.10;47.90;;;;;;5057811;28;43535;-59
2022/12/16 03:22:37;;;;;;;1.25;1.20;;;19.10;48.00;;;;;;5062060;28;43481;-59
2022/12/16 03:25:06;;;;;;;1.52;1.42;;;19.10;48.00;;;;;;5061671;28;43427;-59
2022/12/16 03:27:39;;;;;;;1.55;1.50;;;19.10;48.00;;;;;;5061005;28;44687;-59
2022/12/16 03:30:14;;;;;;;1.58;1.48;;;19.00;48.00;;;;;;5061420;28;43876;-59
2022/12/16 03:32:49;;;;;;;1.80;1.70;;;19.00;48.00;;;;;;5061213;28;43466;-59
2022/12/16 03:35:27;;;;;;;2.08;1.85;;;19.00;48.00;;;;;;5061800;28;43437;-59
2022/12/16 03:37:57;;;;;;;1.88;1.70;;;19.00;48.00;;;;;;5033182;28;44687;-59
2022/12/16 03:40:27;;;;;;;2.78;1.83;;;18.90;48.20;;;;;;5060136;28;43717;-59
2022/12/16 03:42:55;;;;;;;1.90;1.80;;;18.90;48.10;;;;;;5038772;28;43455;-59
2022/12/16 03:45:26;;;;;;;2.10;1.80;;;18.90;48.10;;;;;;5058312;28;43462;-60
2022/12/16 03:47:56;;;;;;;2.47;2.28;;;18.90;48.20;;;;;;5061432;28;44728;-59
2022/12/16 03:50:32;;;;;;;2.30;2.10;;;18.90;48.10;;;;;;5061118;28;43490;-59
2022/12/16 03:53:01;;;;;;;2.33;2.13;;;18.90;48.20;;;;;;5060399;28;43489;-59
2022/12/16 03:55:28;;;;;;;2.15;2.03;;;18.90;48.10;;;;;;5031237;28;43463;-59
2022/12/16 03:57:56;;;;;;;2.40;2.30;;;18.90;48.20;;;;;;5061320;28;44696;-59
2022/12/16 04:00:24;;;;;;;2.50;2.30;;;18.90;48.20;;;;;;5060852;28;43563;-59
2022/12/16 04:02:51;;;;;;;2.53;2.33;;;18.90;48.20;;;;;;5060753;28;43453;-59
2022/12/16 04:05:20;;;;;;;2.47;2.28;;;18.90;48.20;;;;;;5061600;28;43502;-59
2022/12/16 04:07:47;;;;;;;2.63;2.42;;;18.90;48.30;;;;;;5059403;28;43922;-59
2022/12/16 04:10:15;;;;;;;2.42;2.22;;;18.80;48.20;;;;;;5059466;28;43991;-59
2022/12/16 04:29:26;;;;;;;2.83;2.60;;;18.70;48.30;;;;;;5060790;28;44652;-59
2022/12/16 04:31:54;;;;;;;3.15;2.85;;;18.70;48.30;;;;;;5060706;28;43533;-59
2022/12/16 04:34:26;;;;;;;2.50;2.30;;;18.70;48.30;;;;;;5059986;28;43408;-59
